sensor_id;sensor_type;location;lat;lon;timestamp;P1;durP1;ratioP1;P2;durP2;ratioP2
54263;SDS011;40178;53.042;6.406;2023-08-06T00:02:13;12.25;;;8.07;;
54263;SDS011;40178;53.042;6.406;2023-08-06T00:04:39;17.17;;;9.70;;
54263;SDS011;40178;53.042;6.406;2023-08-06T00:07:05;13.77;;;9.13;;
54263;SDS011;40178;53.042;6.406;2023-08-06T00:09:30;17.35;;;9.82;;
54263;SDS011;40178;53.042;6.406;2023-08-06T00:11:56;15.07;;;9.75;;
54263;SDS011;40178;53.042;6.406;2023-08-06T00:14:21;14.80;;;8.63;;
54263;SDS011;40178;53.042;6.406;2023-08-06T00:16:47;16.20;;;9.73;;
54263;SDS011;40178;53.042;6.406;2023-08-06T00:19:13;16.45;;;10.07;;
54263;SDS011;40178;53.042;6.406;2023-08-06T00:21:38;15.75;;;9.95;;
54263;SDS011;40178;53.042;6.406;2023-08-06T00:24:04;16.13;;;10.63;;
54263;SDS011;40178;53.042;6.406;2023-08-06T00:26:29;14.70;;;9.43;;
54263;SDS011;40178;53.042;6.406;2023-08-06T00:28:55;16.80;;;10.88;;
54263;SDS011;40178;53.042;6.406;2023-08-06T00:31:21;16.85;;;10.77;;
54263;SDS011;40178;53.042;6.406;2023-08-06T00:33:46;16.80;;;10.45;;
54263;SDS011;40178;53.042;6.406;2023-08-06T00:36:12;17.02;;;10.38;;
54263;SDS011;40178;53.042;6.406;2023-08-06T00:38:38;16.30;;;10.70;;
54263;SDS011;40178;53.042;6.406;2023-08-06T00:41:03;15.10;;;9.63;;
54263;SDS011;40178;53.042;6.406;2023-08-06T00:43:29;17.30;;;9.85;;
54263;SDS011;40178;53.042;6.406;2023-08-06T00:45:54;15.85;;;9.90;;
54263;SDS011;40178;53.042;6.406;2023-08-06T00:48:21;16.40;;;10.60;;
54263;SDS011;40178;53.042;6.406;2023-08-06T00:50:46;14.68;;;9.68;;
54263;SDS011;40178;53.042;6.406;2023-08-06T00:53:12;17.85;;;10.43;;
54263;SDS011;40178;53.042;6.406;2023-08-06T00:55:38;16.02;;;10.23;;
54263;SDS011;40178;53.042;6.406;2023-08-06T00:58:04;16.40;;;11.70;;
54263;SDS011;40178;53.042;6.406;2023-08-06T01:00:30;15.35;;;9.88;;
54263;SDS011;40178;53.042;6.406;2023-08-06T01:02:56;16.63;;;11.02;;
54263;SDS011;40178;53.042;6.406;2023-08-06T01:05:22;18.33;;;11.32;;
54263;SDS011;40178;53.042;6.406;2023-08-06T01:07:55;19.08;;;11.38;;
54263;SDS011;40178;53.042;6.406;2023-08-06T01:13:48;15.77;;;10.60;;
54263;SDS011;40178;53.042;6.406;2023-08-06T01:18:46;16.25;;;10.73;;
54263;SDS011;40178;53.042;6.406;2023-08-06T01:21:17;16.90;;;10.95;;
54263;SDS011;40178;53.042;6.406;2023-08-06T01:23:44;17.45;;;10.52;;
54263;SDS011;40178;53.042;6.406;2023-08-06T01:32:05;16.30;;;10.15;;
54263;SDS011;40178;53.042;6.406;2023-08-06T01:34:31;17.83;;;10.02;;
54263;SDS011;40178;53.042;6.406;2023-08-06T01:36:59;15.88;;;10.35;;
54263;SDS011;40178;53.042;6.406;2023-08-06T01:39:25;14.60;;;9.43;;
54263;SDS011;40178;53.042;6.406;2023-08-06T01:41:51;17.05;;;9.93;;
54263;SDS011;40178;53.042;6.406;2023-08-06T01:44:17;18.08;;;10.48;;
54263;SDS011;40178;53.042;6.406;2023-08-06T01:46:43;15.45;;;9.70;;
54263;SDS011;40178;53.042;6.406;2023-08-06T01:49:08;16.10;;;10.63;;
54263;SDS011;40178;53.042;6.406;2023-08-06T01:51:34;15.63;;;10.07;;
54263;SDS011;40178;53.042;6.406;2023-08-06T01:54:00;15.57;;;10.07;;
54263;SDS011;40178;53.042;6.406;2023-08-06T01:56:25;16.35;;;10.13;;
54263;SDS011;40178;53.042;6.406;2023-08-06T01:58:51;16.20;;;10.90;;
54263;SDS011;40178;53.042;6.406;2023-08-06T02:01:16;17.77;;;11.02;;
54263;SDS011;40178;53.042;6.406;2023-08-06T02:03:42;17.48;;;10.45;;
54263;SDS011;40178;53.042;6.406;2023-08-06T02:06:08;13.73;;;9.48;;
54263;SDS011;40178;53.042;6.406;2023-08-06T02:08:33;16.63;;;9.65;;
54263;SDS011;40178;53.042;6.406;2023-08-06T02:10:59;17.08;;;10.30;;
54263;SDS011;40178;53.042;6.406;2023-08-06T02:13:25;16.42;;;9.82;;
54263;SDS011;40178;53.042;6.406;2023-08-06T02:15:50;16.58;;;10.32;;
54263;SDS011;40178;53.042;6.406;2023-08-06T02:18:16;17.00;;;10.27;;
54263;SDS011;40178;53.042;6.406;2023-08-06T02:20:42;16.15;;;10.52;;
54263;SDS011;40178;53.042;6.406;2023-08-06T02:23:08;17.45;;;10.18;;
54263;SDS011;40178;53.042;6.406;2023-08-06T02:25:33;16.73;;;10.90;;
54263;SDS011;40178;53.042;6.406;2023-08-06T02:28:00;16.67;;;10.13;;
54263;SDS011;40178;53.042;6.406;2023-08-06T02:30:25;13.60;;;8.85;;
54263;SDS011;40178;53.042;6.406;2023-08-06T02:32:51;17.80;;;9.77;;
54263;SDS011;40178;53.042;6.406;2023-08-06T02:35:17;16.13;;;10.15;;
54263;SDS011;40178;53.042;6.406;2023-08-06T02:37:42;16.58;;;10.25;;
54263;SDS011;40178;53.042;6.406;2023-08-06T02:40:08;16.75;;;10.50;;
54263;SDS011;40178;53.042;6.406;2023-08-06T02:42:34;16.48;;;10.52;;
54263;SDS011;40178;53.042;6.406;2023-08-06T02:44:59;17.67;;;10.45;;
54263;SDS011;40178;53.042;6.406;2023-08-06T02:47:25;16.73;;;11.13;;
54263;SDS011;40178;53.042;6.406;2023-08-06T02:49:50;19.08;;;10.98;;
54263;SDS011;40178;53.042;6.406;2023-08-06T02:52:16;16.23;;;10.73;;
54263;SDS011;40178;53.042;6.406;2023-08-06T02:54:42;16.98;;;10.63;;
54263;SDS011;40178;53.042;6.406;2023-08-06T02:57:08;17.13;;;10.38;;
54263;SDS011;40178;53.042;6.406;2023-08-06T02:59:33;17.25;;;10.23;;
54263;SDS011;40178;53.042;6.406;2023-08-06T03:01:59;15.93;;;10.68;;
54263;SDS011;40178;53.042;6.406;2023-08-06T03:04:24;16.67;;;10.38;;
54263;SDS011;40178;53.042;6.406;2023-08-06T03:06:50;15.13;;;10.20;;
54263;SDS011;40178;53.042;6.406;2023-08-06T03:09:19;16.98;;;10.75;;
54263;SDS011;40178;53.042;6.406;2023-08-06T03:11:44;16.05;;;10.07;;
54263;SDS011;40178;53.042;6.406;2023-08-06T03:14:10;16.83;;;10.60;;
54263;SDS011;40178;53.042;6.406;2023-08-06T03:16:35;14.90;;;9.68;;
54263;SDS011;40178;53.042;6.406;2023-08-06T03:19:01;19.83;;;11.02;;
54263;SDS011;40178;53.042;6.406;2023-08-06T03:21:27;18.35;;;11.07;;
54263;SDS011;40178;53.042;6.406;2023-08-06T03:23:52;17.35;;;11.20;;
54263;SDS011;40178;53.042;6.406;2023-08-06T03:26:18;18.58;;;11.32;;
54263;SDS011;40178;53.042;6.406;2023-08-06T03:28:44;16.92;;;10.18;;
54263;SDS011;40178;53.042;6.406;2023-08-06T03:31:09;17.95;;;11.25;;
54263;SDS011;40178;53.042;6.406;2023-08-06T03:33:35;19.40;;;11.15;;
54263;SDS011;40178;53.042;6.406;2023-08-06T03:36:01;16.23;;;10.63;;
54263;SDS011;40178;53.042;6.406;2023-08-06T03:38:27;14.90;;;10.43;;
54263;SDS011;40178;53.042;6.406;2023-08-06T03:40:53;16.92;;;10.98;;
54263;SDS011;40178;53.042;6.406;2023-08-06T03:43:19;17.98;;;11.13;;
54263;SDS011;40178;53.042;6.406;2023-08-06T03:45:44;17.83;;;11.32;;
54263;SDS011;40178;53.042;6.406;2023-08-06T03:48:10;16.80;;;10.48;;
54263;SDS011;40178;53.042;6.406;2023-08-06T03:50:36;16.30;;;9.73;;
54263;SDS011;40178;53.042;6.406;2023-08-06T03:53:02;14.32;;;9.80;;
54263;SDS011;40178;53.042;6.406;2023-08-06T03:55:27;19.55;;;10.75;;
54263;SDS011;40178;53.042;6.406;2023-08-06T03:57:53;16.23;;;10.20;;
54263;SDS011;40178;53.042;6.406;2023-08-06T04:00:19;15.75;;;9.75;;
54263;SDS011;40178;53.042;6.406;2023-08-06T04:02:44;17.08;;;10.38;;
54263;SDS011;40178;53.042;6.406;2023-08-06T04:05:10;16.55;;;10.25;;
54263;SDS011;40178;53.042;6.406;2023-08-06T04:07:36;16.73;;;9.70;;
54263;SDS011;40178;53.042;6.406;2023-08-06T04:10:02;17.33;;;10.35;;
54263;SDS011;40178;53.042;6.406;2023-08-06T04:12:29;16.92;;;10.10;;
54263;SDS011;40178;53.042;6.406;2023-08-06T04:14:57;15.48;;;9.77;;
54263;SDS011;40178;53.042;6.406;2023-08-06T04:17:23;17.42;;;10.73;;
54263;SDS011;40178;53.042;6.406;2023-08-06T04:19:50;17.27;;;10.43;;
54263;SDS011;40178;53.042;6.406;2023-08-06T04:22:17;21.30;;;10.57;;
54263;SDS011;40178;53.042;6.406;2023-08-06T04:24:43;17.02;;;10.00;;
54263;SDS011;40178;53.042;6.406;2023-08-06T04:27:10;17.50;;;9.93;;
54263;SDS011;40178;53.042;6.406;2023-08-06T04:29:36;19.50;;;10.65;;
54263;SDS011;40178;53.042;6.406;2023-08-06T04:32:03;18.88;;;10.93;;
54263;SDS011;40178;53.042;6.406;2023-08-06T04:34:30;17.15;;;10.15;;
54263;SDS011;40178;53.042;6.406;2023-08-06T04:36:56;18.33;;;10.27;;
54263;SDS011;40178;53.042;6.406;2023-08-06T04:39:21;16.38;;;10.02;;
54263;SDS011;40178;53.042;6.406;2023-08-06T04:41:47;18.98;;;10.68;;
54263;SDS011;40178;53.042;6.406;2023-08-06T04:44:12;16.38;;;10.48;;
54263;SDS011;40178;53.042;6.406;2023-08-06T04:46:38;16.77;;;9.82;;
54263;SDS011;40178;53.042;6.406;2023-08-06T04:49:04;17.83;;;10.68;;
54263;SDS011;40178;53.042;6.406;2023-08-06T04:51:29;15.65;;;10.30;;
54263;SDS011;40178;53.042;6.406;2023-08-06T04:53:56;16.08;;;10.40;;
54263;SDS011;40178;53.042;6.406;2023-08-06T04:56:22;17.67;;;9.68;;
54263;SDS011;40178;53.042;6.406;2023-08-06T04:58:48;14.00;;;8.98;;
54263;SDS011;40178;53.042;6.406;2023-08-06T05:01:13;15.55;;;10.25;;
54263;SDS011;40178;53.042;6.406;2023-08-06T05:03:39;17.30;;;9.40;;
54263;SDS011;40178;53.042;6.406;2023-08-06T05:06:05;16.40;;;9.90;;
54263;SDS011;40178;53.042;6.406;2023-08-06T05:08:30;15.38;;;9.05;;
54263;SDS011;40178;53.042;6.406;2023-08-06T05:10:56;14.23;;;9.35;;
54263;SDS011;40178;53.042;6.406;2023-08-06T05:13:22;14.85;;;9.63;;
54263;SDS011;40178;53.042;6.406;2023-08-06T05:15:47;16.50;;;10.30;;
54263;SDS011;40178;53.042;6.406;2023-08-06T05:18:13;15.27;;;8.88;;
54263;SDS011;40178;53.042;6.406;2023-08-06T05:20:41;15.70;;;9.93;;
54263;SDS011;40178;53.042;6.406;2023-08-06T05:23:07;14.98;;;9.50;;
54263;SDS011;40178;53.042;6.406;2023-08-06T05:25:37;14.60;;;9.48;;
54263;SDS011;40178;53.042;6.406;2023-08-06T05:28:03;17.75;;;9.20;;
54263;SDS011;40178;53.042;6.406;2023-08-06T05:30:28;13.75;;;9.40;;
54263;SDS011;40178;53.042;6.406;2023-08-06T05:32:54;13.18;;;9.10;;
54263;SDS011;40178;53.042;6.406;2023-08-06T05:35:20;16.58;;;9.43;;
54263;SDS011;40178;53.042;6.406;2023-08-06T05:37:47;15.45;;;8.93;;
54263;SDS011;40178;53.042;6.406;2023-08-06T05:40:13;14.68;;;9.27;;
54263;SDS011;40178;53.042;6.406;2023-08-06T05:42:39;16.17;;;9.93;;
54263;SDS011;40178;53.042;6.406;2023-08-06T05:45:05;17.00;;;9.30;;
54263;SDS011;40178;53.042;6.406;2023-08-06T05:47:31;15.73;;;9.75;;
54263;SDS011;40178;53.042;6.406;2023-08-06T05:49:57;14.63;;;8.82;;
54263;SDS011;40178;53.042;6.406;2023-08-06T05:52:22;14.32;;;9.43;;
54263;SDS011;40178;53.042;6.406;2023-08-06T05:54:48;14.32;;;10.05;;
54263;SDS011;40178;53.042;6.406;2023-08-06T05:57:13;12.25;;;8.80;;
54263;SDS011;40178;53.042;6.406;2023-08-06T05:59:40;13.27;;;8.65;;
54263;SDS011;40178;53.042;6.406;2023-08-06T06:02:06;15.50;;;8.70;;
54263;SDS011;40178;53.042;6.406;2023-08-06T06:04:31;13.70;;;9.05;;
54263;SDS011;40178;53.042;6.406;2023-08-06T06:06:57;12.68;;;8.40;;
54263;SDS011;40178;53.042;6.406;2023-08-06T06:09:22;12.82;;;7.63;;
54263;SDS011;40178;53.042;6.406;2023-08-06T06:11:48;14.68;;;8.68;;
54263;SDS011;40178;53.042;6.406;2023-08-06T06:14:15;14.65;;;8.73;;
54263;SDS011;40178;53.042;6.406;2023-08-06T06:16:44;11.93;;;7.90;;
54263;SDS011;40178;53.042;6.406;2023-08-06T06:19:10;13.20;;;8.50;;
54263;SDS011;40178;53.042;6.406;2023-08-06T06:21:37;12.63;;;7.90;;
54263;SDS011;40178;53.042;6.406;2023-08-06T06:24:04;11.50;;;7.68;;
54263;SDS011;40178;53.042;6.406;2023-08-06T06:26:30;13.27;;;8.52;;
54263;SDS011;40178;53.042;6.406;2023-08-06T06:28:57;13.77;;;8.82;;
54263;SDS011;40178;53.042;6.406;2023-08-06T06:31:23;13.90;;;8.23;;
54263;SDS011;40178;53.042;6.406;2023-08-06T06:33:48;11.15;;;7.15;;
54263;SDS011;40178;53.042;6.406;2023-08-06T06:36:14;11.48;;;7.18;;
54263;SDS011;40178;53.042;6.406;2023-08-06T06:38:39;11.10;;;7.03;;
54263;SDS011;40178;53.042;6.406;2023-08-06T06:41:05;11.70;;;7.13;;
54263;SDS011;40178;53.042;6.406;2023-08-06T06:43:31;10.60;;;7.05;;
54263;SDS011;40178;53.042;6.406;2023-08-06T06:45:57;10.07;;;6.90;;
54263;SDS011;40178;53.042;6.406;2023-08-06T06:48:25;12.27;;;7.32;;
54263;SDS011;40178;53.042;6.406;2023-08-06T06:50:52;10.95;;;6.93;;
54263;SDS011;40178;53.042;6.406;2023-08-06T06:53:17;10.77;;;7.03;;
54263;SDS011;40178;53.042;6.406;2023-08-06T06:55:43;9.90;;;6.88;;
54263;SDS011;40178;53.042;6.406;2023-08-06T06:58:11;11.20;;;7.28;;
54263;SDS011;40178;53.042;6.406;2023-08-06T07:00:38;10.38;;;6.32;;
54263;SDS011;40178;53.042;6.406;2023-08-06T07:03:04;10.80;;;7.82;;
54263;SDS011;40178;53.042;6.406;2023-08-06T07:05:30;11.13;;;6.65;;
54263;SDS011;40178;53.042;6.406;2023-08-06T07:07:55;10.43;;;7.45;;
54263;SDS011;40178;53.042;6.406;2023-08-06T07:10:21;11.50;;;6.80;;
54263;SDS011;40178;53.042;6.406;2023-08-06T07:12:46;12.40;;;6.95;;
54263;SDS011;40178;53.042;6.406;2023-08-06T07:15:12;9.68;;;7.05;;
54263;SDS011;40178;53.042;6.406;2023-08-06T07:17:38;10.35;;;6.60;;
54263;SDS011;40178;53.042;6.406;2023-08-06T07:20:03;12.02;;;7.63;;
54263;SDS011;40178;53.042;6.406;2023-08-06T07:22:31;10.45;;;7.05;;
54263;SDS011;40178;53.042;6.406;2023-08-06T07:24:56;11.10;;;6.57;;
54263;SDS011;40178;53.042;6.406;2023-08-06T07:27:22;11.35;;;6.90;;
54263;SDS011;40178;53.042;6.406;2023-08-06T07:29:49;10.73;;;6.90;;
54263;SDS011;40178;53.042;6.406;2023-08-06T07:32:15;11.73;;;7.15;;
54263;SDS011;40178;53.042;6.406;2023-08-06T07:34:40;9.43;;;6.20;;
54263;SDS011;40178;53.042;6.406;2023-08-06T07:37:06;9.35;;;5.93;;
54263;SDS011;40178;53.042;6.406;2023-08-06T07:39:32;9.57;;;6.40;;
54263;SDS011;40178;53.042;6.406;2023-08-06T07:41:57;8.77;;;6.07;;
54263;SDS011;40178;53.042;6.406;2023-08-06T07:44:23;8.70;;;6.10;;
54263;SDS011;40178;53.042;6.406;2023-08-06T07:46:49;13.32;;;7.07;;
54263;SDS011;40178;53.042;6.406;2023-08-06T07:49:14;9.88;;;6.60;;
54263;SDS011;40178;53.042;6.406;2023-08-06T07:51:40;8.55;;;6.00;;
54263;SDS011;40178;53.042;6.406;2023-08-06T07:54:06;11.07;;;6.35;;
54263;SDS011;40178;53.042;6.406;2023-08-06T07:56:32;11.32;;;6.15;;
54263;SDS011;40178;53.042;6.406;2023-08-06T07:58:57;10.20;;;6.53;;
54263;SDS011;40178;53.042;6.406;2023-08-06T08:01:23;9.52;;;6.78;;
54263;SDS011;40178;53.042;6.406;2023-08-06T08:03:49;10.52;;;6.75;;
54263;SDS011;40178;53.042;6.406;2023-08-06T08:06:14;11.18;;;5.93;;
54263;SDS011;40178;53.042;6.406;2023-08-06T08:08:40;9.18;;;6.03;;
54263;SDS011;40178;53.042;6.406;2023-08-06T08:11:06;8.02;;;5.60;;
54263;SDS011;40178;53.042;6.406;2023-08-06T08:13:32;8.55;;;5.68;;
54263;SDS011;40178;53.042;6.406;2023-08-06T08:15:58;11.70;;;7.00;;
54263;SDS011;40178;53.042;6.406;2023-08-06T08:18:24;8.25;;;5.65;;
54263;SDS011;40178;53.042;6.406;2023-08-06T08:20:50;8.70;;;5.72;;
54263;SDS011;40178;53.042;6.406;2023-08-06T08:23:15;8.65;;;5.82;;
54263;SDS011;40178;53.042;6.406;2023-08-06T08:25:41;10.05;;;5.85;;
54263;SDS011;40178;53.042;6.406;2023-08-06T08:28:07;9.13;;;6.07;;
54263;SDS011;40178;53.042;6.406;2023-08-06T08:30:32;8.73;;;4.82;;
54263;SDS011;40178;53.042;6.406;2023-08-06T08:32:58;8.18;;;5.40;;
54263;SDS011;40178;53.042;6.406;2023-08-06T08:35:24;8.32;;;5.50;;
54263;SDS011;40178;53.042;6.406;2023-08-06T08:37:50;9.98;;;5.90;;
54263;SDS011;40178;53.042;6.406;2023-08-06T08:40:16;7.53;;;5.30;;
54263;SDS011;40178;53.042;6.406;2023-08-06T08:42:42;8.27;;;4.82;;
54263;SDS011;40178;53.042;6.406;2023-08-06T08:45:12;7.50;;;4.35;;
54263;SDS011;40178;53.042;6.406;2023-08-06T08:47:39;7.88;;;5.10;;
54263;SDS011;40178;53.042;6.406;2023-08-06T08:50:06;7.75;;;5.13;;
54263;SDS011;40178;53.042;6.406;2023-08-06T08:52:34;8.05;;;5.00;;
54263;SDS011;40178;53.042;6.406;2023-08-06T08:55:00;6.95;;;4.90;;
54263;SDS011;40178;53.042;6.406;2023-08-06T08:57:26;7.07;;;4.45;;
54263;SDS011;40178;53.042;6.406;2023-08-06T08:59:52;6.28;;;3.90;;
54263;SDS011;40178;53.042;6.406;2023-08-06T09:02:17;6.63;;;4.53;;
54263;SDS011;40178;53.042;6.406;2023-08-06T09:04:46;7.13;;;4.72;;
54263;SDS011;40178;53.042;6.406;2023-08-06T09:07:13;6.60;;;3.88;;
54263;SDS011;40178;53.042;6.406;2023-08-06T09:09:43;6.15;;;3.65;;
54263;SDS011;40178;53.042;6.406;2023-08-06T09:12:12;7.05;;;3.30;;
54263;SDS011;40178;53.042;6.406;2023-08-06T09:14:40;6.13;;;3.55;;
54263;SDS011;40178;53.042;6.406;2023-08-06T09:17:06;4.93;;;2.78;;
54263;SDS011;40178;53.042;6.406;2023-08-06T09:19:32;4.75;;;2.58;;
54263;SDS011;40178;53.042;6.406;2023-08-06T09:21:58;5.35;;;2.28;;
54263;SDS011;40178;53.042;6.406;2023-08-06T09:24:24;3.53;;;1.50;;
54263;SDS011;40178;53.042;6.406;2023-08-06T09:26:51;3.88;;;1.98;;
54263;SDS011;40178;53.042;6.406;2023-08-06T09:29:17;4.28;;;1.98;;
54263;SDS011;40178;53.042;6.406;2023-08-06T09:31:49;4.60;;;2.00;;
54263;SDS011;40178;53.042;6.406;2023-08-06T09:34:22;5.57;;;2.47;;
54263;SDS011;40178;53.042;6.406;2023-08-06T09:36:48;4.53;;;2.42;;
54263;SDS011;40178;53.042;6.406;2023-08-06T09:39:19;3.53;;;1.88;;
54263;SDS011;40178;53.042;6.406;2023-08-06T09:41:55;3.75;;;1.77;;
54263;SDS011;40178;53.042;6.406;2023-08-06T09:44:21;4.10;;;1.60;;
54263;SDS011;40178;53.042;6.406;2023-08-06T09:49:24;4.15;;;1.92;;
54263;SDS011;40178;53.042;6.406;2023-08-06T09:51:51;4.05;;;1.85;;
54263;SDS011;40178;53.042;6.406;2023-08-06T09:54:20;6.15;;;2.30;;
54263;SDS011;40178;53.042;6.406;2023-08-06T09:56:48;5.45;;;1.92;;
54263;SDS011;40178;53.042;6.406;2023-08-06T09:59:13;4.10;;;1.92;;
54263;SDS011;40178;53.042;6.406;2023-08-06T10:01:41;3.35;;;1.27;;
54263;SDS011;40178;53.042;6.406;2023-08-06T10:04:07;3.20;;;1.50;;
54263;SDS011;40178;53.042;6.406;2023-08-06T10:06:37;3.92;;;1.27;;
54263;SDS011;40178;53.042;6.406;2023-08-06T10:09:05;2.92;;;1.30;;
54263;SDS011;40178;53.042;6.406;2023-08-06T10:11:32;2.58;;;1.10;;
54263;SDS011;40178;53.042;6.406;2023-08-06T10:14:00;3.15;;;1.35;;
54263;SDS011;40178;53.042;6.406;2023-08-06T10:16:46;3.15;;;1.33;;
54263;SDS011;40178;53.042;6.406;2023-08-06T10:19:12;2.92;;;1.30;;
54263;SDS011;40178;53.042;6.406;2023-08-06T10:21:40;2.67;;;1.25;;
54263;SDS011;40178;53.042;6.406;2023-08-06T10:24:06;3.22;;;1.48;;
54263;SDS011;40178;53.042;6.406;2023-08-06T10:26:35;2.97;;;1.25;;
54263;SDS011;40178;53.042;6.406;2023-08-06T10:29:01;3.38;;;1.50;;
54263;SDS011;40178;53.042;6.406;2023-08-06T10:32:03;4.00;;;1.60;;
54263;SDS011;40178;53.042;6.406;2023-08-06T10:37:24;3.40;;;1.70;;
54263;SDS011;40178;53.042;6.406;2023-08-06T10:39:59;3.45;;;1.48;;
54263;SDS011;40178;53.042;6.406;2023-08-06T10:42:28;3.25;;;1.20;;
54263;SDS011;40178;53.042;6.406;2023-08-06T10:47:40;3.25;;;1.30;;
54263;SDS011;40178;53.042;6.406;2023-08-06T10:50:15;4.97;;;1.40;;
54263;SDS011;40178;53.042;6.406;2023-08-06T10:52:45;4.25;;;1.70;;
54263;SDS011;40178;53.042;6.406;2023-08-06T10:55:12;6.93;;;1.38;;
54263;SDS011;40178;53.042;6.406;2023-08-06T10:57:56;3.25;;;1.10;;
54263;SDS011;40178;53.042;6.406;2023-08-06T11:00:23;4.70;;;1.08;;
54263;SDS011;40178;53.042;6.406;2023-08-06T11:02:49;4.10;;;1.40;;
54263;SDS011;40178;53.042;6.406;2023-08-06T11:05:16;3.72;;;1.50;;
54263;SDS011;40178;53.042;6.406;2023-08-06T11:07:42;5.70;;;1.67;;
54263;SDS011;40178;53.042;6.406;2023-08-06T11:10:09;4.57;;;1.48;;
54263;SDS011;40178;53.042;6.406;2023-08-06T11:12:38;3.50;;;1.10;;
54263;SDS011;40178;53.042;6.406;2023-08-06T11:15:04;3.55;;;1.20;;
54263;SDS011;40178;53.042;6.406;2023-08-06T11:17:31;4.45;;;1.10;;
54263;SDS011;40178;53.042;6.406;2023-08-06T11:20:04;4.22;;;1.30;;
54263;SDS011;40178;53.042;6.406;2023-08-06T11:22:30;3.13;;;1.50;;
54263;SDS011;40178;53.042;6.406;2023-08-06T11:24:56;14.05;;;1.45;;
54263;SDS011;40178;53.042;6.406;2023-08-06T11:27:22;2.70;;;1.10;;
54263;SDS011;40178;53.042;6.406;2023-08-06T11:29:48;3.42;;;1.17;;
54263;SDS011;40178;53.042;6.406;2023-08-06T11:32:13;2.97;;;1.55;;
54263;SDS011;40178;53.042;6.406;2023-08-06T11:34:39;2.83;;;1.15;;
54263;SDS011;40178;53.042;6.406;2023-08-06T11:37:06;2.42;;;1.00;;
54263;SDS011;40178;53.042;6.406;2023-08-06T11:39:35;2.85;;;1.10;;
54263;SDS011;40178;53.042;6.406;2023-08-06T11:42:02;5.38;;;1.73;;
54263;SDS011;40178;53.042;6.406;2023-08-06T11:44:33;4.22;;;1.27;;
54263;SDS011;40178;53.042;6.406;2023-08-06T11:47:01;5.18;;;1.63;;
54263;SDS011;40178;53.042;6.406;2023-08-06T11:52:23;4.22;;;1.73;;
54263;SDS011;40178;53.042;6.406;2023-08-06T11:55:05;2.35;;;1.30;;
54263;SDS011;40178;53.042;6.406;2023-08-06T11:57:36;3.97;;;1.70;;
54263;SDS011;40178;53.042;6.406;2023-08-06T12:00:05;3.85;;;1.30;;
54263;SDS011;40178;53.042;6.406;2023-08-06T12:02:32;3.60;;;1.40;;
54263;SDS011;40178;53.042;6.406;2023-08-06T12:07:42;2.53;;;1.17;;
54263;SDS011;40178;53.042;6.406;2023-08-06T12:10:10;4.75;;;1.20;;
54263;SDS011;40178;53.042;6.406;2023-08-06T12:12:35;4.07;;;1.30;;
54263;SDS011;40178;53.042;6.406;2023-08-06T12:15:02;5.05;;;1.77;;
54263;SDS011;40178;53.042;6.406;2023-08-06T12:17:29;3.05;;;1.40;;
54263;SDS011;40178;53.042;6.406;2023-08-06T12:19:54;2.38;;;1.00;;
54263;SDS011;40178;53.042;6.406;2023-08-06T12:22:20;4.60;;;1.23;;
54263;SDS011;40178;53.042;6.406;2023-08-06T12:24:46;4.25;;;1.52;;
54263;SDS011;40178;53.042;6.406;2023-08-06T12:27:12;3.90;;;1.10;;
54263;SDS011;40178;53.042;6.406;2023-08-06T12:29:41;2.53;;;1.17;;
54263;SDS011;40178;53.042;6.406;2023-08-06T12:32:08;5.70;;;1.42;;
54263;SDS011;40178;53.042;6.406;2023-08-06T12:34:34;3.03;;;1.25;;
54263;SDS011;40178;53.042;6.406;2023-08-06T12:37:01;3.92;;;1.40;;
54263;SDS011;40178;53.042;6.406;2023-08-06T12:39:27;3.22;;;1.50;;
54263;SDS011;40178;53.042;6.406;2023-08-06T12:41:54;2.45;;;1.02;;
54263;SDS011;40178;53.042;6.406;2023-08-06T12:44:20;4.20;;;1.30;;
54263;SDS011;40178;53.042;6.406;2023-08-06T12:46:46;3.40;;;1.13;;
54263;SDS011;40178;53.042;6.406;2023-08-06T12:49:11;3.53;;;1.48;;
54263;SDS011;40178;53.042;6.406;2023-08-06T12:51:37;4.00;;;1.75;;
54263;SDS011;40178;53.042;6.406;2023-08-06T12:54:03;4.28;;;1.48;;
54263;SDS011;40178;53.042;6.406;2023-08-06T12:56:29;3.53;;;1.20;;
54263;SDS011;40178;53.042;6.406;2023-08-06T12:58:54;3.22;;;1.45;;
54263;SDS011;40178;53.042;6.406;2023-08-06T13:01:20;3.70;;;1.48;;
54263;SDS011;40178;53.042;6.406;2023-08-06T13:03:46;3.97;;;1.30;;
54263;SDS011;40178;53.042;6.406;2023-08-06T13:06:11;3.38;;;1.10;;
54263;SDS011;40178;53.042;6.406;2023-08-06T13:08:37;3.97;;;1.40;;
54263;SDS011;40178;53.042;6.406;2023-08-06T13:11:03;3.03;;;1.20;;
54263;SDS011;40178;53.042;6.406;2023-08-06T13:13:30;3.58;;;1.50;;
54263;SDS011;40178;53.042;6.406;2023-08-06T13:15:55;4.50;;;1.75;;
54263;SDS011;40178;53.042;6.406;2023-08-06T13:18:21;4.03;;;1.27;;
54263;SDS011;40178;53.042;6.406;2023-08-06T13:20:47;4.65;;;1.40;;
54263;SDS011;40178;53.042;6.406;2023-08-06T13:23:14;2.58;;;1.10;;
54263;SDS011;40178;53.042;6.406;2023-08-06T13:25:42;3.30;;;1.30;;
54263;SDS011;40178;53.042;6.406;2023-08-06T13:28:07;3.45;;;1.42;;
54263;SDS011;40178;53.042;6.406;2023-08-06T13:30:33;3.95;;;1.58;;
54263;SDS011;40178;53.042;6.406;2023-08-06T13:33:00;2.40;;;1.00;;
54263;SDS011;40178;53.042;6.406;2023-08-06T13:35:26;3.28;;;1.40;;
54263;SDS011;40178;53.042;6.406;2023-08-06T13:37:52;2.70;;;1.17;;
54263;SDS011;40178;53.042;6.406;2023-08-06T13:40:19;3.30;;;1.10;;
54263;SDS011;40178;53.042;6.406;2023-08-06T13:42:44;3.33;;;1.45;;
54263;SDS011;40178;53.042;6.406;2023-08-06T13:45:10;3.67;;;1.20;;
54263;SDS011;40178;53.042;6.406;2023-08-06T13:47:36;3.45;;;1.45;;
54263;SDS011;40178;53.042;6.406;2023-08-06T13:50:02;4.30;;;1.13;;
54263;SDS011;40178;53.042;6.406;2023-08-06T13:52:28;4.22;;;1.30;;
54263;SDS011;40178;53.042;6.406;2023-08-06T13:54:54;2.92;;;1.15;;
54263;SDS011;40178;53.042;6.406;2023-08-06T13:57:19;2.70;;;1.20;;
54263;SDS011;40178;53.042;6.406;2023-08-06T13:59:45;3.10;;;1.50;;
54263;SDS011;40178;53.042;6.406;2023-08-06T14:02:11;3.17;;;1.00;;
54263;SDS011;40178;53.042;6.406;2023-08-06T14:04:36;2.55;;;1.10;;
54263;SDS011;40178;53.042;6.406;2023-08-06T14:07:05;4.57;;;1.13;;
54263;SDS011;40178;53.042;6.406;2023-08-06T14:09:31;3.17;;;1.25;;
54263;SDS011;40178;53.042;6.406;2023-08-06T14:11:56;2.50;;;1.27;;
54263;SDS011;40178;53.042;6.406;2023-08-06T14:14:22;2.35;;;1.00;;
54263;SDS011;40178;53.042;6.406;2023-08-06T14:16:51;4.45;;;1.33;;
54263;SDS011;40178;53.042;6.406;2023-08-06T14:19:17;3.80;;;1.42;;
54263;SDS011;40178;53.042;6.406;2023-08-06T14:21:43;2.47;;;1.60;;
54263;SDS011;40178;53.042;6.406;2023-08-06T14:24:08;4.13;;;1.20;;
54263;SDS011;40178;53.042;6.406;2023-08-06T14:26:34;2.20;;;1.00;;
54263;SDS011;40178;53.042;6.406;2023-08-06T14:29:00;3.25;;;1.00;;
54263;SDS011;40178;53.042;6.406;2023-08-06T14:31:26;4.28;;;1.33;;
54263;SDS011;40178;53.042;6.406;2023-08-06T14:33:52;3.45;;;1.45;;
54263;SDS011;40178;53.042;6.406;2023-08-06T14:36:18;2.67;;;1.05;;
54263;SDS011;40178;53.042;6.406;2023-08-06T14:38:44;3.15;;;1.35;;
54263;SDS011;40178;53.042;6.406;2023-08-06T14:41:09;2.78;;;1.20;;
54263;SDS011;40178;53.042;6.406;2023-08-06T14:43:35;3.20;;;1.15;;
54263;SDS011;40178;53.042;6.406;2023-08-06T14:46:01;3.47;;;1.25;;
54263;SDS011;40178;53.042;6.406;2023-08-06T14:48:28;3.08;;;1.38;;
54263;SDS011;40178;53.042;6.406;2023-08-06T14:50:54;4.20;;;1.00;;
54263;SDS011;40178;53.042;6.406;2023-08-06T14:53:20;3.95;;;1.45;;
54263;SDS011;40178;53.042;6.406;2023-08-06T14:55:45;2.97;;;1.20;;
54263;SDS011;40178;53.042;6.406;2023-08-06T14:58:11;3.08;;;1.38;;
54263;SDS011;40178;53.042;6.406;2023-08-06T15:00:37;3.72;;;1.30;;